Time;durP1;ratioP1;P1;durP2;ratioP2;P2;SDS_P1;SDS_P2;PMS_P1;PMS_P2;Temp;Humidity;BMP_temperature;BMP_pressure;BME280_temperature;BME280_humidity;BME280_pressure;Samples;Min_cycle;Max_cycle;Signal;HPM_P1;HPM_P2
2022/11/13 00:00:40;;;;;;;16.73;10.82;;;12.00;78.80;;;;;;5018289;28;20034;-71
2022/11/13 00:03:06;;;;;;;16.15;9.32;;;12.00;78.60;;;;;;5015736;28;20018;-71
2022/11/13 00:05:31;;;;;;;13.23;9.68;;;12.00;78.60;;;;;;5019718;28;20188;-72
2022/11/13 00:07:57;;;;;;;17.38;11.52;;;12.00;78.30;;;;;;5024119;28;20110;-71
2022/11/13 00:10:23;;;;;;;15.07;8.63;;;12.00;78.10;;;;;;5011412;28;20060;-71
2022/11/13 00:12:48;;;;;;;14.90;9.02;;;12.00;78.00;;;;;;5020456;28;20060;-71
2022/11/13 00:15:14;;;;;;;14.45;8.77;;;12.00;77.80;;;;;;5026499;28;20071;-70
2022/11/13 00:17:39;;;;;;;10.65;7.28;;;12.00;77.60;;;;;;5029053;28;20083;-72
2022/11/13 00:20:05;;;;;;;13.25;7.30;;;12.00;77.30;;;;;;5028890;28;20034;-71
2022/11/13 00:22:31;;;;;;;13.45;7.78;;;12.10;77.20;;;;;;5031073;28;20032;-71
2022/11/13 00:24:57;;;;;;;11.38;7.40;;;12.10;76.90;;;;;;5023634;28;20045;-71
2022/11/13 00:27:23;;;;;;;12.38;8.48;;;12.10;76.70;;;;;;5025582;28;20105;-70
2022/11/13 00:29:49;;;;;;;17.67;9.80;;;12.20;76.30;;;;;;5021300;28;20053;-71
2022/11/13 00:32:15;;;;;;;13.75;8.40;;;12.20;76.10;;;;;;5020971;28;20022;-70
2022/11/13 00:34:40;;;;;;;11.00;7.00;;;12.20;76.00;;;;;;5018496;28;20029;-71
2022/11/13 00:37:06;;;;;;;10.02;6.82;;;12.20;76.10;;;;;;5021046;28;20025;-71
2022/11/13 00:39:31;;;;;;;13.25;8.63;;;12.20;76.40;;;;;;5016158;28;20030;-72
2022/11/13 00:41:57;;;;;;;10.98;7.22;;;12.20;76.50;;;;;;5021724;28;20034;-71
2022/11/13 00:44:23;;;;;;;11.68;6.22;;;12.20;76.10;;;;;;5024984;28;20068;-72
2022/11/13 00:46:48;;;;;;;9.43;5.57;;;12.30;75.70;;;;;;5019805;28;20044;-71
2022/11/13 00:49:15;;;;;;;9.82;6.32;;;12.30;75.50;;;;;;5024673;28;20510;-71
2022/11/13 00:51:40;;;;;;;11.15;5.95;;;12.30;74.90;;;;;;5018846;28;20034;-71
2022/11/13 00:54:06;;;;;;;9.10;5.63;;;12.30;74.70;;;;;;5021799;28;20030;-71
2022/11/13 00:56:32;;;;;;;10.93;5.95;;;12.30;74.90;;;;;;5019078;28;20028;-73
2022/11/13 00:58:57;;;;;;;13.10;6.57;;;12.30;74.50;;;;;;5020630;28;20171;-72
2022/11/13 01:01:23;;;;;;;7.53;5.40;;;12.30;73.90;;;;;;5010413;28;20076;-72
2022/11/13 01:03:49;;;;;;;12.43;6.45;;;12.40;74.00;;;;;;5018459;28;20383;-71
2022/11/13 01:06:20;;;;;;;9.02;5.70;;;12.30;73.90;;;;;;5016128;28;20037;-72
2022/11/13 01:08:47;;;;;;;9.18;5.75;;;12.30;74.40;;;;;;5019661;28;20503;-72
2022/11/13 01:11:18;;;;;;;9.85;5.43;;;12.30;74.00;;;;;;5010366;28;20033;-72
2022/11/13 01:13:46;;;;;;;9.68;6.57;;;12.30;73.70;;;;;;5012075;28;20096;-71
2022/11/13 01:16:13;;;;;;;12.45;6.13;;;12.30;73.40;;;;;;5023658;28;20133;-71
2022/11/13 01:18:42;;;;;;;9.68;5.63;;;12.30;73.30;;;;;;5013917;28;20143;-71
2022/11/13 01:21:14;;;;;;;12.00;6.15;;;12.30;73.00;;;;;;5023209;28;20116;-71
2022/11/13 01:23:39;;;;;;;9.32;5.78;;;12.30;72.80;;;;;;5028917;28;20055;-70
2022/11/13 01:26:06;;;;;;;10.52;6.47;;;12.30;72.60;;;;;;5026307;28;20116;-70
2022/11/13 01:28:32;;;;;;;9.93;6.20;;;12.30;72.70;;;;;;5027747;28;20033;-71
2022/11/13 01:30:58;;;;;;;8.98;5.90;;;12.30;72.60;;;;;;5029865;28;20037;-71
2022/11/13 01:33:23;;;;;;;10.20;6.55;;;12.30;72.60;;;;;;5015436;28;20507;-71
2022/11/13 01:35:49;;;;;;;9.98;6.50;;;12.20;72.50;;;;;;5027030;28;20118;-72
2022/11/13 01:38:14;;;;;;;10.25;6.18;;;12.20;72.60;;;;;;5023300;28;20040;-72
2022/11/13 01:40:47;;;;;;;12.38;7.35;;;12.20;72.80;;;;;;5019281;28;20109;-71
2022/11/13 01:43:31;;;;;;;10.25;6.20;;;12.10;72.80;;;;;;5028185;28;20105;-72
2022/11/13 01:45:56;;;;;;;8.63;5.30;;;12.10;72.90;;;;;;5023318;28;20156;-71
2022/11/13 01:48:26;;;;;;;11.05;5.93;;;12.10;72.90;;;;;;5011589;28;20022;-71
2022/11/13 01:50:52;;;;;;;10.88;6.68;;;12.10;72.90;;;;;;5022385;28;20389;-71
2022/11/13 01:53:18;;;;;;;14.63;5.72;;;12.10;72.90;;;;;;5028481;28;20021;-71
2022/11/13 01:55:44;;;;;;;10.75;5.70;;;12.00;72.70;;;;;;5028157;28;20021;-72
2022/11/13 01:58:11;;;;;;;13.50;6.13;;;12.00;72.70;;;;;;5028224;28;20030;-71
2022/11/13 02:00:37;;;;;;;9.68;5.63;;;12.00;72.60;;;;;;5025021;28;20022;-72
2022/11/13 02:03:03;;;;;;;12.27;5.93;;;12.00;72.40;;;;;;5016034;28;20099;-71
2022/11/13 02:05:29;;;;;;;8.85;4.93;;;12.00;72.40;;;;;;5022533;28;20025;-71
2022/11/13 02:07:54;;;;;;;9.77;5.88;;;12.00;72.40;;;;;;5018558;28;20026;-71
2022/11/13 02:10:20;;;;;;;11.43;4.82;;;12.00;72.30;;;;;;5013111;28;20448;-71
2022/11/13 02:12:50;;;;;;;9.45;6.53;;;11.90;72.20;;;;;;5019820;28;20080;-71
2022/11/13 02:15:20;;;;;;;13.63;5.55;;;11.90;72.00;;;;;;5019361;28;20521;-71
2022/11/13 02:17:53;;;;;;;11.60;5.10;;;12.00;72.00;;;;;;5020408;28;20457;-71
2022/11/13 02:20:45;;;;;;;9.77;4.65;;;12.00;72.00;;;;;;5016021;28;20049;-71
2022/11/13 02:23:21;;;;;;;9.63;5.75;;;11.90;71.90;;;;;;5014878;28;20042;-71
2022/11/13 02:25:50;;;;;;;10.43;5.10;;;11.90;71.70;;;;;;5025975;28;20041;-71
2022/11/13 02:28:16;;;;;;;9.13;5.40;;;11.90;71.40;;;;;;5024586;28;20030;-73
2022/11/13 02:30:42;;;;;;;8.25;4.63;;;11.90;71.30;;;;;;5011265;28;20022;-71
2022/11/13 02:33:28;;;;;;;9.30;5.15;;;11.90;71.50;;;;;;5018025;28;20087;-71
2022/11/13 02:35:54;;;;;;;11.63;5.43;;;11.90;71.50;;;;;;5020540;28;20026;-71
2022/11/13 02:38:20;;;;;;;8.77;4.63;;;11.90;71.20;;;;;;5017699;28;20026;-72
2022/11/13 02:40:46;;;;;;;8.43;5.03;;;11.90;71.20;;;;;;5015429;28;20171;-71
2022/11/13 02:43:11;;;;;;;9.70;5.70;;;11.90;71.10;;;;;;5028325;28;20029;-72
2022/11/13 02:45:37;;;;;;;10.45;6.03;;;11.90;71.00;;;;;;5021907;28;20588;-72
2022/11/13 02:48:04;;;;;;;10.23;5.65;;;11.80;70.80;;;;;;5023261;28;20030;-71
2022/11/13 02:50:30;;;;;;;9.68;5.93;;;11.80;70.70;;;;;;5020881;28;20940;-70
2022/11/13 02:52:56;;;;;;;9.82;5.50;;;11.90;70.60;;;;;;5021190;28;20075;-72
2022/11/13 02:55:23;;;;;;;9.88;6.22;;;11.80;70.40;;;;;;5025268;28;20030;-72
2022/11/13 02:57:49;;;;;;;12.18;7.55;;;11.80;70.30;;;;;;5024526;28;20025;-71
2022/11/13 03:00:15;;;;;;;9.27;5.63;;;11.80;70.30;;;;;;5016054;28;20133;-72
2022/11/13 03:02:41;;;;;;;10.40;6.72;;;11.80;70.30;;;;;;5015106;28;20036;-73
2022/11/13 03:05:07;;;;;;;10.45;6.55;;;11.80;70.40;;;;;;5013044;28;20030;-72
2022/11/13 03:07:33;;;;;;;9.25;6.45;;;11.70;70.30;;;;;;5013968;28;20021;-71
2022/11/13 03:09:59;;;;;;;12.07;7.45;;;11.70;70.50;;;;;;5010074;28;20034;-71
2022/11/13 03:12:24;;;;;;;12.20;7.32;;;11.70;70.30;;;;;;5010951;28;20068;-72
2022/11/13 03:14:50;;;;;;;11.07;7.22;;;11.70;70.60;;;;;;5019655;28;20037;-71
2022/11/13 03:17:15;;;;;;;10.05;7.03;;;11.70;70.80;;;;;;5015535;28;20030;-72
2022/11/13 03:19:41;;;;;;;11.93;7.45;;;11.60;70.90;;;;;;5026210;28;20026;-70
2022/11/13 03:22:07;;;;;;;11.98;7.30;;;11.60;71.00;;;;;;5016347;28;20033;-71
2022/11/13 03:24:33;;;;;;;10.40;6.78;;;11.60;71.10;;;;;;5018978;28;20132;-72
2022/11/13 03:26:58;;;;;;;10.35;6.57;;;11.60;71.30;;;;;;5014460;28;20042;-71
2022/11/13 03:29:24;;;;;;;10.68;7.03;;;11.60;71.30;;;;;;5022424;28;20473;-71
2022/11/13 03:31:50;;;;;;;9.50;6.82;;;11.60;71.30;;;;;;5014273;28;20384;-72
2022/11/13 03:34:16;;;;;;;11.60;7.72;;;11.60;71.20;;;;;;5014737;28;20022;-72
2022/11/13 03:36:42;;;;;;;13.25;7.50;;;11.60;71.30;;;;;;5012053;28;20420;-72
2022/11/13 03:39:09;;;;;;;13.13;8.15;;;11.50;71.30;;;;;;5012655;28;20030;-72
2022/11/13 03:41:35;;;;;;;14.30;7.47;;;11.50;71.20;;;;;;5010810;28;20689;-71
2022/11/13 03:44:00;;;;;;;11.32;7.50;;;11.40;71.20;;;;;;5012449;28;20029;-72
2022/11/13 03:46:26;;;;;;;11.63;7.78;;;11.40;71.40;;;;;;5016383;28;20025;-72
2022/11/13 03:48:51;;;;;;;11.98;7.40;;;11.40;71.70;;;;;;5011909;28;20026;-71
2022/11/13 03:51:17;;;;;;;12.27;8.63;;;11.40;71.90;;;;;;5023998;28;20108;-71
2022/11/13 03:53:43;;;;;;;13.88;8.55;;;11.40;71.80;;;;;;5012449;28;20040;-71
2022/11/13 03:56:08;;;;;;;13.48;7.82;;;11.30;72.00;;;;;;5016196;28;20049;-71
2022/11/13 03:58:34;;;;;;;12.68;8.57;;;11.30;72.20;;;;;;5021004;28;20026;-71
2022/11/13 04:01:02;;;;;;;12.45;7.93;;;11.20;72.30;;;;;;5019333;28;20542;-71
2022/11/13 04:03:27;;;;;;;12.02;8.45;;;11.20;72.20;;;;;;5021792;28;20029;-71
2022/11/13 04:05:53;;;;;;;10.25;7.50;;;11.20;72.50;;;;;;5024847;28;20034;-71
2022/11/13 04:08:19;;;;;;;11.15;7.85;;;11.20;73.00;;;;;;5014920;28;20021;-71
2022/11/13 04:10:45;;;;;;;11.68;7.68;;;11.10;73.10;;;;;;5027329;28;20032;-72
2022/11/13 04:13:11;;;;;;;12.07;7.68;;;11.10;72.90;;;;;;5024840;28;20018;-72
2022/11/13 04:15:37;;;;;;;12.35;8.98;;;11.10;72.80;;;;;;5026319;28;20056;-72
2022/11/13 04:18:03;;;;;;;10.75;7.97;;;11.10;72.80;;;;;;5021612;28;20487;-71
2022/11/13 04:20:29;;;;;;;11.30;9.00;;;11.00;72.70;;;;;;5017239;28;20024;-72
2022/11/13 04:22:55;;;;;;;11.55;7.90;;;11.00;72.60;;;;;;5009616;28;20045;-71
2022/11/13 04:25:22;;;;;;;12.32;8.63;;;11.00;72.70;;;;;;5014063;28;20136;-72
2022/11/13 04:27:49;;;;;;;11.45;7.70;;;11.00;72.70;;;;;;5012870;28;20702;-71
2022/11/13 04:30:14;;;;;;;14.80;8.52;;;11.00;73.30;;;;;;5019397;28;20076;-70
2022/11/13 04:32:40;;;;;;;14.13;9.57;;;10.90;73.40;;;;;;5017830;28;20542;-71
2022/11/13 04:35:06;;;;;;;13.57;9.48;;;10.90;73.50;;;;;;5019001;28;20483;-72
2022/11/13 04:37:32;;;;;;;12.80;9.65;;;10.90;73.30;;;;;;5022184;28;20030;-72
2022/11/13 04:39:57;;;;;;;11.93;8.98;;;10.90;73.10;;;;;;5007460;28;20032;-71
2022/11/13 04:45:08;;;;;;;12.40;9.10;;;10.90;72.80;;;;;;5013598;28;20064;-71
2022/11/13 04:47:34;;;;;;;12.05;9.15;;;10.90;72.70;;;;;;5026617;28;20063;-72
2022/11/13 04:49:59;;;;;;;14.18;10.00;;;10.90;72.80;;;;;;5016933;28;20038;-71
2022/11/13 04:52:27;;;;;;;13.95;9.38;;;10.90;72.80;;;;;;5015335;28;20030;-73
2022/11/13 04:54:53;;;;;;;13.75;8.65;;;10.90;73.00;;;;;;5006636;28;20026;-72
2022/11/13 04:57:19;;;;;;;12.13;9.00;;;10.90;73.00;;;;;;5013288;28;20102;-72
2022/11/13 04:59:44;;;;;;;13.30;9.27;;;10.80;73.20;;;;;;5021544;28;20104;-71
2022/11/13 05:02:10;;;;;;;11.68;8.40;;;10.80;73.50;;;;;;5019755;28;20057;-71
2022/11/13 05:04:35;;;;;;;13.07;9.15;;;10.80;73.60;;;;;;5014454;28;20038;-70
2022/11/13 05:07:01;;;;;;;11.13;9.13;;;10.70;73.80;;;;;;5020618;28;20499;-71
2022/11/13 05:09:27;;;;;;;13.10;9.57;;;10.70;74.40;;;;;;5026668;28;20022;-71
2022/11/13 05:11:52;;;;;;;14.07;10.05;;;10.70;73.60;;;;;;5015372;28;20025;-71
2022/11/13 05:14:18;;;;;;;11.80;8.77;;;10.70;73.60;;;;;;5017322;28;20388;-71
2022/11/13 05:16:43;;;;;;;10.75;8.23;;;10.60;73.50;;;;;;5015031;28;20022;-71
2022/11/13 05:19:09;;;;;;;13.18;10.05;;;10.60;73.60;;;;;;5022543;28;20036;-72
2022/11/13 05:21:36;;;;;;;13.45;9.93;;;10.60;73.60;;;;;;5024081;28;20026;-72
2022/11/13 05:24:03;;;;;;;12.55;9.13;;;10.60;73.90;;;;;;5018074;28;20049;-71
2022/11/13 05:26:29;;;;;;;14.30;9.00;;;10.60;73.80;;;;;;5029251;28;20442;-71
2022/11/13 05:28:58;;;;;;;13.10;9.50;;;10.60;73.70;;;;;;5023989;28;20082;-71
2022/11/13 05:31:24;;;;;;;14.93;9.23;;;10.60;73.80;;;;;;5009905;28;20037;-70
2022/11/13 05:33:50;;;;;;;11.82;9.23;;;10.60;73.80;;;;;;5016500;28;20352;-71
2022/11/13 05:36:18;;;;;;;14.10;9.50;;;10.50;73.50;;;;;;5010916;28;20112;-71
2022/11/13 05:38:43;;;;;;;10.98;7.93;;;10.60;73.50;;;;;;5022863;28;20026;-71
2022/11/13 05:41:11;;;;;;;11.95;7.43;;;10.60;73.40;;;;;;5010722;28;20076;-72
2022/11/13 05:43:38;;;;;;;14.38;8.45;;;10.60;73.20;;;;;;5015103;28;20030;-72
2022/11/13 05:46:05;;;;;;;12.00;8.18;;;10.50;73.00;;;;;;5015291;28;20072;-71
2022/11/13 05:48:32;;;;;;;14.05;8.27;;;10.50;73.00;;;;;;5015320;28;20053;-72
2022/11/13 05:51:08;;;;;;;11.63;7.82;;;10.50;73.60;;;;;;5012897;28;20091;-71
2022/11/13 05:53:34;;;;;;;12.00;9.10;;;10.50;72.80;;;;;;5017853;28;20030;-71
2022/11/13 05:56:21;;;;;;;10.63;6.63;;;10.50;72.70;;;;;;5016869;28;20026;-72
2022/11/13 05:58:47;;;;;;;11.98;8.20;;;10.50;72.70;;;;;;5020435;28;20128;-71
2022/11/13 06:01:17;;;;;;;13.20;7.72;;;10.50;72.40;;;;;;5026394;28;20025;-71
2022/11/13 06:03:44;;;;;;;10.95;7.97;;;10.40;72.30;;;;;;5017376;28;20036;-72
2022/11/13 06:06:13;;;;;;;12.13;7.82;;;10.50;72.10;;;;;;5026301;28;20124;-72
2022/11/13 06:08:40;;;;;;;13.23;6.80;;;10.50;71.90;;;;;;5014396;28;20053;-71
2022/11/13 06:11:10;;;;;;;10.70;7.10;;;10.40;71.80;;;;;;5018129;28;20153;-73
2022/11/13 06:13:36;;;;;;;9.07;6.68;;;10.40;71.70;;;;;;5015834;28;20026;-71
2022/11/13 06:16:08;;;;;;;10.00;6.72;;;10.40;71.40;;;;;;5019880;28;20508;-71
2022/11/13 06:18:34;;;;;;;10.02;6.97;;;10.40;71.50;;;;;;5019842;28;20060;-71
2022/11/13 06:21:01;;;;;;;10.48;6.18;;;10.40;71.30;;;;;;5023550;28;20452;-72
2022/11/13 06:23:27;;;;;;;9.27;6.47;;;10.40;71.00;;;;;;5009424;28;20095;-72
2022/11/13 06:26:06;;;;;;;9.93;5.75;;;10.40;70.60;;;;;;5027013;28;20067;-71
2022/11/13 06:28:32;;;;;;;10.32;6.97;;;10.50;70.50;;;;;;5019742;28;20029;-71
2022/11/13 06:31:03;;;;;;;11.35;7.03;;;10.50;70.40;;;;;;5025070;28;20028;-71
2022/11/13 06:33:29;;;;;;;10.18;6.90;;;10.50;70.20;;;;;;5013289;28;20025;-71
2022/11/13 06:35:55;;;;;;;10.57;6.43;;;10.50;70.60;;;;;;5022822;28;20033;-70
2022/11/13 06:38:21;;;;;;;10.27;5.90;;;10.50;70.20;;;;;;5016179;28;20029;-71
2022/11/13 06:40:46;;;;;;;10.60;6.93;;;10.50;70.10;;;;;;5019768;28;20014;-71
2022/11/13 06:43:12;;;;;;;8.13;5.45;;;10.40;69.90;;;;;;5011629;28;20033;-73
2022/11/13 06:45:38;;;;;;;9.07;6.03;;;10.50;70.00;;;;;;5018359;28;20109;-71
2022/11/13 06:48:03;;;;;;;9.27;6.03;;;10.40;70.00;;;;;;5028651;28;20026;-70
2022/11/13 06:50:29;;;;;;;8.25;5.38;;;10.50;69.90;;;;;;5027889;28;20019;-71
2022/11/13 06:52:55;;;;;;;11.70;6.97;;;10.40;69.80;;;;;;5019299;28;20196;-71
2022/11/13 06:55:20;;;;;;;11.02;6.35;;;10.40;69.80;;;;;;5018872;28;20025;-71
2022/11/13 06:57:46;;;;;;;9.40;6.90;;;10.40;69.90;;;;;;5016756;28;20019;-70
2022/11/13 07:00:12;;;;;;;10.55;7.07;;;10.40;69.80;;;;;;5013440;28;20060;-71
2022/11/13 07:02:38;;;;;;;9.60;5.68;;;10.40;69.60;;;;;;5009704;28;20029;-72
2022/11/13 07:05:04;;;;;;;9.63;6.40;;;10.40;69.60;;;;;;5011727;28;20064;-71
2022/11/13 07:07:29;;;;;;;10.25;7.30;;;10.40;69.60;;;;;;5011220;28;20442;-71
2022/11/13 07:09:55;;;;;;;10.25;6.00;;;10.40;69.80;;;;;;5007873;28;20036;-71
2022/11/13 07:12:21;;;;;;;10.77;6.50;;;10.40;69.80;;;;;;5027652;28;20040;-70
2022/11/13 07:14:46;;;;;;;10.55;7.18;;;10.40;70.00;;;;;;5017103;28;20030;-71
2022/11/13 07:17:12;;;;;;;9.00;6.38;;;10.50;70.30;;;;;;5024738;28;20055;-73
2022/11/13 07:19:37;;;;;;;9.35;5.95;;;10.40;69.90;;;;;;5014276;28;20033;-71
2022/11/13 07:22:03;;;;;;;9.52;6.68;;;10.50;70.00;;;;;;5020817;28;20080;-72
2022/11/13 07:24:28;;;;;;;10.88;7.60;;;10.50;70.60;;;;;;5014153;28;20041;-71
2022/11/13 07:26:54;;;;;;;10.45;7.30;;;10.50;70.60;;;;;;5020278;28;20567;-71
2022/11/13 07:29:20;;;;;;;13.02;6.93;;;10.50;70.40;;;;;;5018658;28;20076;-71
2022/11/13 07:31:45;;;;;;;8.80;6.20;;;10.70;70.40;;;;;;5017832;28;20020;-71
2022/11/13 07:34:13;;;;;;;9.23;6.13;;;11.10;70.50;;;;;;5017163;28;20029;-71
2022/11/13 07:36:39;;;;;;;9.90;6.18;;;11.90;68.90;;;;;;5019102;28;20053;-72
2022/11/13 07:39:05;;;;;;;8.60;5.60;;;12.80;65.90;;;;;;5015899;28;20864;-71
2022/11/13 07:41:32;;;;;;;10.73;6.85;;;13.90;63.40;;;;;;5012166;28;20060;-71
2022/11/13 07:43:57;;;;;;;10.52;6.45;;;14.60;60.40;;;;;;5012231;28;20022;-71
2022/11/13 07:46:23;;;;;;;9.93;6.35;;;15.20;58.90;;;;;;5009610;28;20030;-70
2022/11/13 07:48:49;;;;;;;8.95;6.40;;;15.80;57.50;;;;;;5023017;28;20026;-72
2022/11/13 07:51:14;;;;;;;8.75;6.15;;;16.30;55.90;;;;;;5007158;28;20566;-71
2022/11/13 07:53:40;;;;;;;9.02;6.32;;;16.60;55.10;;;;;;5023873;28;20029;-71
2022/11/13 07:56:06;;;;;;;8.52;5.22;;;16.50;55.20;;;;;;5016028;28;20068;-71
2022/11/13 07:58:32;;;;;;;7.80;5.13;;;16.30;55.50;;;;;;5021041;28;20029;-72
2022/11/13 08:01:04;;;;;;;8.48;5.90;;;16.00;56.30;;;;;;5018589;28;20029;-72
2022/11/13 08:03:31;;;;;;;9.02;5.75;;;16.10;56.10;;;;;;5021099;28;20120;-72
2022/11/13 08:06:06;;;;;;;9.27;6.15;;;16.40;55.20;;;;;;5016626;28;20038;-71
2022/11/13 08:08:32;;;;;;;9.20;6.47;;;16.80;54.60;;;;;;5016881;28;20037;-74
2022/11/13 08:11:01;;;;;;;10.20;6.68;;;17.10;53.40;;;;;;5017550;28;20029;-72
2022/11/13 08:13:27;;;;;;;11.55;6.72;;;17.50;52.80;;;;;;5019829;28;20024;-72
2022/11/13 08:15:53;;;;;;;9.07;6.03;;;17.70;51.90;;;;;;5018018;28;20017;-72
2022/11/13 08:18:18;;;;;;;10.60;6.45;;;18.00;51.50;;;;;;5020214;28;20026;-71
2022/11/13 08:20:44;;;;;;;7.95;5.78;;;18.30;51.00;;;;;;5016175;28;20029;-71
2022/11/13 08:23:09;;;;;;;8.10;6.55;;;18.60;50.40;;;;;;5016962;28;20052;-72
2022/11/13 08:25:35;;;;;;;11.35;6.40;;;18.80;49.70;;;;;;5018204;28;20138;-72
2022/11/13 08:28:01;;;;;;;8.93;6.72;;;19.00;49.00;;;;;;5021925;28;20140;-71
2022/11/13 08:30:28;;;;;;;10.15;7.25;;;19.20;48.60;;;;;;5019734;28;20112;-71
2022/11/13 08:32:54;;;;;;;10.70;6.63;;;19.40;47.90;;;;;;5015749;28;20076;-72
2022/11/13 08:35:20;;;;;;;9.70;6.28;;;19.50;48.00;;;;;;5019773;28;20416;-72
2022/11/13 08:37:46;;;;;;;10.65;7.10;;;19.60;48.10;;;;;;5023177;28;20663;-72
2022/11/13 08:40:12;;;;;;;11.10;6.65;;;19.60;47.90;;;;;;5019703;28;20150;-72
2022/11/13 08:42:37;;;;;;;10.75;6.95;;;19.70;47.90;;;;;;5010950;28;20048;-72
2022/11/13 08:45:03;;;;;;;9.57;6.68;;;19.80;48.00;;;;;;5024432;28;20033;-71
2022/11/13 08:47:29;;;;;;;10.68;7.18;;;19.90;47.60;;;;;;5010878;28;20022;-72
2022/11/13 08:49:55;;;;;;;10.60;6.95;;;20.00;47.30;;;;;;5023171;28;20115;-72
2022/11/13 08:52:21;;;;;;;8.90;6.80;;;20.20;47.10;;;;;;5021552;28;20057;-72
2022/11/13 08:54:47;;;;;;;9.85;6.32;;;20.30;46.80;;;;;;5023380;28;20021;-72
2022/11/13 08:57:12;;;;;;;10.18;6.38;;;20.30;47.40;;;;;;5018951;28;20033;-72
2022/11/13 08:59:38;;;;;;;13.93;8.35;;;20.30;47.80;;;;;;5012791;28;20025;-72
2022/11/13 09:02:04;;;;;;;11.88;6.93;;;20.40;47.30;;;;;;5017110;28;20496;-73
2022/11/13 09:04:30;;;;;;;9.35;6.35;;;20.50;47.50;;;;;;5017293;28;20024;-74
2022/11/13 09:06:55;;;;;;;10.88;7.82;;;20.60;47.40;;;;;;5024485;28;20053;-72
2022/11/13 09:09:22;;;;;;;12.25;7.43;;;20.70;46.70;;;;;;5014798;28;20025;-73
2022/11/13 09:11:47;;;;;;;9.50;7.20;;;20.70;45.40;;;;;;5021783;28;20614;-73
2022/11/13 09:14:13;;;;;;;8.15;4.88;;;20.80;45.30;;;;;;5010899;28;20020;-72
2022/11/13 09:16:39;;;;;;;10.63;7.78;;;20.90;53.10;;;;;;5027151;28;20053;-73
2022/11/13 09:19:05;;;;;;;11.05;7.55;;;20.80;48.30;;;;;;5013332;28;20081;-71
2022/11/13 09:21:31;;;;;;;9.40;6.82;;;20.70;45.90;;;;;;5021270;28;20034;-72
2022/11/13 09:23:56;;;;;;;10.00;7.10;;;20.80;46.30;;;;;;5013652;28;20155;-73
2022/11/13 09:26:22;;;;;;;11.00;7.95;;;20.80;45.60;;;;;;5017025;28;20037;-73
2022/11/13 09:28:47;;;;;;;9.80;7.32;;;20.80;45.70;;;;;;5028040;28;20033;-73
2022/11/13 09:31:14;;;;;;;12.05;7.50;;;20.70;45.70;;;;;;5025707;28;20426;-72
2022/11/13 09:33:39;;;;;;;10.38;7.10;;;20.70;45.60;;;;;;5021042;28;20030;-73
2022/11/13 09:36:16;;;;;;;10.73;7.75;;;20.80;45.30;;;;;;5022276;28;20031;-72
2022/11/13 09:38:41;;;;;;;12.20;6.18;;;20.90;45.10;;;;;;5013874;28;20018;-73
2022/11/13 09:41:16;;;;;;;10.50;6.28;;;21.10;46.30;;;;;;5014591;28;20472;-73
2022/11/13 09:43:45;;;;;;;12.32;6.47;;;21.20;46.10;;;;;;5008313;28;20022;-73
2022/11/13 09:46:19;;;;;;;13.40;8.15;;;21.20;45.70;;;;;;5016183;28;20175;-73
2022/11/13 09:48:54;;;;;;;8.65;6.53;;;21.20;44.60;;;;;;5016110;28;20485;-71
2022/11/13 09:51:24;;;;;;;8.73;6.82;;;21.10;44.70;;;;;;5014901;28;20043;-73
2022/11/13 09:53:50;;;;;;;;;;;21.00;44.50;;;;;;5029081;28;20055;-73
2022/11/13 09:56:41;;;;;;;9.50;6.65;;;20.90;44.60;;;;;;5015283;28;19909;-73
2022/11/13 09:59:35;;;;;;;10.02;6.85;;;20.70;45.00;;;;;;5010791;28;20137;-73
2022/11/13 10:02:07;;;;;;;11.13;7.22;;;20.60;45.40;;;;;;5020092;28;20025;-74
2022/11/13 10:04:56;;;;;;;9.45;6.32;;;20.50;44.80;;;;;;5012760;28;20042;-72
2022/11/13 10:07:57;;;;;;;10.52;6.40;;;20.60;56.30;;;;;;5018172;28;20057;-73
2022/11/13 10:10:46;;;;;;;10.88;6.68;;;20.70;47.90;;;;;;5015855;28;20041;-73
2022/11/13 10:13:17;;;;;;;10.63;7.95;;;20.80;48.70;;;;;;4998380;28;20049;-74
2022/11/13 10:15:48;;;;;;;10.57;7.78;;;20.80;44.90;;;;;;5010558;28;20476;-72
2022/11/13 10:18:24;;;;;;;10.00;6.97;;;20.90;44.40;;;;;;5022806;28;20029;-73
2022/11/13 10:20:56;;;;;;;9.52;6.15;;;20.90;44.10;;;;;;5028082;28;20498;-73
2022/11/13 10:23:38;;;;;;;10.43;6.93;;;21.10;45.80;;;;;;5028333;28;20081;-73
2022/11/13 10:26:24;;;;;;;10.82;7.30;;;21.30;44.20;;;;;;5011527;28;20046;-73
2022/11/13 10:29:01;;;;;;;9.48;6.43;;;21.50;43.20;;;;;;5012193;28;20026;-73
2022/11/13 10:31:26;;;;;;;10.32;6.82;;;21.50;44.00;;;;;;5007709;28;20064;-73
2022/11/13 10:33:53;;;;;;;9.50;6.43;;;21.60;43.30;;;;;;5012709;28;20057;-72
2022/11/13 10:36:47;;;;;;;10.30;6.18;;;21.70;42.70;;;;;;5009825;28;20033;-73
2022/11/13 10:39:12;;;;;;;8.50;5.63;;;21.90;42.80;;;;;;5025756;28;20132;-74
2022/11/13 10:41:48;;;;;;;10.27;7.03;;;21.90;44.90;;;;;;5016541;28;20101;-73
2022/11/13 10:44:20;;;;;;;7.90;6.00;;;21.90;42.30;;;;;;5022560;28;20022;-73
2022/11/13 10:46:47;;;;;;;10.23;6.03;;;22.00;42.90;;;;;;5024159;28;20534;-74
2022/11/13 10:49:21;;;;;;;10.02;6.93;;;22.10;43.90;;;;;;5019900;28;20029;-73
2022/11/13 10:51:55;;;;;;;8.88;6.05;;;22.20;42.00;;;;;;5016358;28;20018;-73
2022/11/13 10:54:27;;;;;;;9.43;6.60;;;22.40;42.70;;;;;;5018948;28;20057;-73
2022/11/13 10:57:01;;;;;;;10.43;5.88;;;22.40;40.90;;;;;;5019940;28;20108;-73
2022/11/13 10:59:40;;;;;;;7.90;5.97;;;22.30;42.90;;;;;;5015792;28;20611;-73
2022/11/13 11:02:24;;;;;;;10.52;6.30;;;22.40;43.50;;;;;;5015148;28;20037;-74
2022/11/13 11:05:15;;;;;;;9.15;5.95;;;22.40;41.00;;;;;;5022091;28;20037;-73
2022/11/13 11:07:41;;;;;;;6.78;4.03;;;22.50;42.10;;;;;;5019777;28;20135;-73
2022/11/13 11:10:28;;;;;;;5.30;3.42;;;22.70;63.10;;;;;;5023038;28;20112;-72
2022/11/13 11:13:05;;;;;;;4.93;2.78;;;22.80;69.40;;;;;;5023034;28;20057;-73
2022/11/13 11:15:49;;;;;;;7.07;3.60;;;23.00;67.00;;;;;;5022107;28;20037;-73
2022/11/13 11:18:28;;;;;;;6.85;4.38;;;22.90;65.50;;;;;;5019080;28;20037;-73
2022/11/13 11:20:57;;;;;;;5.97;3.55;;;22.60;60.30;;;;;;5019531;28;20048;-74
2022/11/13 11:23:28;;;;;;;7.10;3.28;;;22.40;63.00;;;;;;5023908;28;20132;-73
2022/11/13 11:25:59;;;;;;;7.85;3.97;;;22.30;64.60;;;;;;5023021;28;20100;-72
2022/11/13 11:28:45;;;;;;;8.88;4.55;;;22.40;66.20;;;;;;5019120;28;20045;-76
2022/11/13 11:31:46;;;;;;;7.90;3.58;;;22.50;66.50;;;;;;5024229;28;20100;-76
2022/11/13 11:34:20;;;;;;;7.88;3.88;;;22.60;66.30;;;;;;5010860;28;20033;-77
2022/11/13 11:37:13;;;;;;;8.15;4.40;;;22.60;59.00;;;;;;5021858;28;20391;-79
2022/11/13 11:39:59;;;;;;;7.60;3.65;;;22.60;56.80;;;;;;5013425;28;20056;-74
2022/11/13 11:42:40;;;;;;;6.20;3.63;;;22.60;65.40;;;;;;5023050;28;20041;-73
2022/11/13 11:45:32;;;;;;;6.35;3.92;;;22.80;62.80;;;;;;5018738;28;20115;-73
2022/11/13 11:48:00;;;;;;;6.07;3.67;;;22.90;58.30;;;;;;5021292;28;20245;-72
2022/11/13 11:50:45;;;;;;;8.77;3.28;;;22.80;58.40;;;;;;5026862;28;20693;-74
2022/11/13 11:53:18;;;;;;;6.93;2.97;;;22.90;59.50;;;;;;5021652;28;20038;-73
2022/11/13 11:56:04;;;;;;;6.03;3.25;;;23.10;67.40;;;;;;5018911;28;20097;-73
2022/11/13 11:58:51;;;;;;;5.80;3.30;;;23.30;64.50;;;;;;5012284;28;20125;-74
2022/11/13 12:01:35;;;;;;;6.43;3.95;;;23.40;63.10;;;;;;5021099;28;20037;-74
2022/11/13 12:04:21;;;;;;;7.90;4.28;;;23.50;62.30;;;;;;5013545;28;20095;-73
2022/11/13 12:07:01;;;;;;;5.93;3.13;;;23.50;60.80;;;;;;5022489;28;20442;-74
2022/11/13 12:09:35;;;;;;;4.65;3.05;;;23.50;64.50;;;;;;5016255;28;20041;-74
2022/11/13 12:12:18;;;;;;;7.55;3.75;;;23.60;59.40;;;;;;5022300;28;20022;-74
2022/11/13 12:15:08;;;;;;;4.45;2.60;;;23.70;61.80;;;;;;5022928;28;20025;-74
2022/11/13 12:17:40;;;;;;;6.32;2.85;;;23.80;64.50;;;;;;5023557;28;20460;-73
2022/11/13 12:20:38;;;;;;;5.00;2.80;;;24.00;66.80;;;;;;5017029;28;20843;-75
2022/11/13 12:23:30;;;;;;;5.75;3.63;;;24.10;64.50;;;;;;5017185;28;20093;-74
2022/11/13 12:26:19;;;;;;;6.40;3.55;;;24.00;60.70;;;;;;5024026;28;20460;-74
2022/11/13 12:28:51;;;;;;;7.28;3.85;;;23.90;56.70;;;;;;5012004;28;20484;-73
2022/11/13 12:31:37;;;;;;;6.50;4.25;;;23.70;56.80;;;;;;5013074;28;20042;-74
2022/11/13 12:34:13;;;;;;;5.63;3.08;;;23.70;65.80;;;;;;5030728;28;20124;-73
2022/11/13 12:36:39;;;;;;;5.00;3.38;;;24.10;68.70;;;;;;5025063;28;20156;-74
2022/11/13 12:39:35;;;;;;;4.68;2.58;;;24.10;60.80;;;;;;5025341;28;20108;-73
2022/11/13 12:42:29;;;;;;;5.75;3.65;;;24.20;64.60;;;;;;5024644;28;20030;-73
2022/11/13 12:45:08;;;;;;;5.32;3.03;;;24.10;54.90;;;;;;5021967;28;20030;-73
2022/11/13 12:47:35;;;;;;;4.80;2.78;;;24.10;58.00;;;;;;5019827;28;20041;-74
2022/11/13 12:50:04;;;;;;;5.68;2.38;;;24.30;58.20;;;;;;5027310;28;20025;-75
2022/11/13 12:52:29;;;;;;;4.75;2.83;;;24.50;66.20;;;;;;5019061;28;20037;-73
2022/11/13 12:55:08;;;;;;;4.40;2.22;;;24.80;63.40;;;;;;5023121;28;20025;-74